Aérodrome :
LOGIN :

S'inscrire | Disclaimer

   EN    FR    IT 

 










Légende :    VFR   VFR Marginal   IFR   IFR Intensif   IFR Très Intensif
Visi : 
Plafond : 
>= 8 km
>= 3000ft
5 à 8 km
1000 à 3000 ft
1500m à 5 km
500 à 1000 ft
800 à 1500m
200 à 500 ft
< 800m
< 200 ft
Symboles :   Orages  Brouillard  Fortes neiges  Fortes précipitations  Vent > 20 kt
SIGMETs :   Divers  Orages  Givrage  Turbulence  Onde Orograph.  Cendres Volcan.






- Altitude de l'aérodrome : 266 ft
- Code IATA : NCL


EGNT - Newcastle

DERNIER METAR :
  • 260350Z AUTO VRB02KT 9999 BKN026/// 12/07 Q1033

METARs EXPIRÉS :
  • 260320Z AUTO 23004KT 9999 FEW038/// 11/07 Q1033
  • 260250Z AUTO 21003KT 9999 NCD 11/07 Q1032
  • 260220Z AUTO VRB02KT 9999 FEW020/// 11/07 Q1032
  • 260150Z AUTO 18002KT 9999 NCD 11/07 Q1033

TAF TAF EGNT
Valide du 26 à 00h jusqu'au 27 à 00h UTC


252257Z 2600/2624 26008KT 9999 SCT030
PROB30
TEMPO 2600/2609 8000 -RA BKN014
TEMPO 2613/2619 08010KT
ATIS : +44 191 214 3400



MET'MAP, la Météo Aéronautique d'un coup d'oeil ! - Copyright ORBIFLY Décembre 2007 - Disclaimer

ORBIFLY MET'MAP TEAM :

Programmation & Développement : Alexandra Zaïnal
Sur une idée originale de : Baudouin d'Aumeries
Assistance à la programmation : Marc-Olivier Méhu
Soutien technique & logistique : Manuel Goepfert

Contact : metmap@orbifly.com




SOURCES & CREDITS :

   NOAA